createdAt,value
2022-08-12T00:00:36.799Z,24.09
2022-08-12T00:03:25.738Z,24.08
2022-08-12T00:06:14.805Z,24.07
2022-08-12T00:09:02.005Z,24.07
2022-08-12T00:11:49.390Z,24.07
2022-08-12T00:14:37.185Z,24.06
2022-08-12T00:17:24.924Z,24.06
2022-08-12T00:20:12.442Z,24.05
2022-08-12T00:23:00.310Z,24.03
2022-08-12T00:26:21.758Z,24.02
2022-08-12T00:29:07.630Z,23.97
2022-08-12T00:31:54.964Z,23.95
2022-08-12T00:34:42.103Z,23.91
2022-08-12T00:37:29.794Z,23.85
2022-08-12T00:40:16.943Z,23.74
2022-08-12T00:42:48.140Z,23.70
2022-08-12T00:45:18.184Z,23.64
2022-08-12T00:47:48.803Z,23.59
2022-08-12T00:50:19.228Z,23.55
2022-08-12T00:52:50.915Z,23.50
2022-08-12T00:55:20.841Z,23.45
2022-08-12T00:57:51.444Z,23.39
2022-08-12T01:00:23.381Z,23.33
2022-08-12T01:02:56.809Z,23.34
2022-08-12T01:05:45.026Z,23.30
2022-08-12T01:08:43.707Z,23.27
2022-08-12T01:11:32.072Z,23.24
2022-08-12T01:14:03.147Z,23.20
2022-08-12T01:16:32.400Z,23.16
2022-08-12T01:19:03.152Z,23.15
2022-08-12T01:22:04.134Z,23.13
2022-08-12T01:24:54.109Z,23.08
2022-08-12T01:27:25.220Z,23.02
2022-08-12T01:29:56.908Z,22.96
2022-08-12T01:32:28.865Z,22.93
2022-08-12T01:35:05.281Z,22.91
2022-08-12T01:37:37.433Z,22.85
2022-08-12T01:40:34.372Z,22.83
2022-08-12T01:43:06.097Z,22.79
2022-08-12T01:45:43.283Z,22.74
2022-08-12T01:48:25.108Z,22.70
2022-08-12T01:52:14.831Z,22.71
2022-08-12T01:54:06.956Z,22.67
2022-08-12T01:56:45.928Z,22.60
2022-08-12T01:59:38.429Z,22.49
2022-08-12T02:02:16.160Z,22.47
2022-08-12T02:05:19.888Z,22.44
2022-08-12T02:08:16.447Z,22.38
2022-08-12T02:11:17.148Z,22.34
2022-08-12T02:14:10.446Z,22.30
2022-08-12T02:16:58.631Z,22.25
2022-08-12T02:19:54.043Z,22.26
2022-08-12T02:22:29.163Z,22.25
2022-08-12T02:25:06.691Z,22.25
2022-08-12T02:27:39.367Z,22.24
2022-08-12T02:30:12.592Z,22.22
2022-08-12T02:32:44.800Z,22.18
2022-08-12T02:35:16.938Z,22.10
2022-08-12T02:37:47.916Z,22.07
2022-08-12T02:40:19.078Z,22.03
2022-08-12T02:42:53.279Z,22.00
2022-08-12T02:45:27.310Z,21.89
2022-08-12T02:48:01.561Z,21.86
2022-08-12T02:50:34.091Z,21.85
2022-08-12T02:53:04.938Z,21.83
2022-08-12T02:55:36.018Z,21.81
2022-08-12T02:58:09.029Z,21.78
2022-08-12T03:00:42.570Z,21.71
2022-08-12T03:03:12.960Z,21.66
2022-08-12T03:05:48.534Z,21.57
2022-08-12T03:08:32.562Z,21.52
2022-08-12T03:11:06.259Z,21.42
2022-08-12T03:13:46.414Z,21.39
2022-08-12T03:16:15.845Z,21.39
2022-08-12T03:18:46.155Z,21.35
2022-08-12T03:21:52.870Z,21.39
2022-08-12T03:24:08.952Z,21.39
2022-08-12T03:26:39.270Z,21.40
2022-08-12T03:29:09.170Z,21.39
2022-08-12T03:31:38.069Z,21.37
2022-08-12T03:34:08.404Z,21.35
2022-08-12T03:36:39.426Z,21.29
2022-08-12T03:39:35.820Z,21.21
2022-08-12T03:42:25.625Z,21.15
2022-08-12T03:45:30.639Z,21.10
2022-08-12T03:48:21.246Z,21.06
2022-08-12T03:51:09.619Z,21.04
2022-08-12T03:53:58.308Z,20.99
2022-08-12T03:56:45.371Z,20.95
2022-08-12T03:59:33.131Z,20.92
2022-08-12T04:02:01.973Z,20.90
2022-08-12T04:04:33.560Z,20.90
2022-08-12T04:07:06.032Z,20.90
2022-08-12T04:09:37.827Z,20.89
2022-08-12T04:12:32.336Z,20.85
2022-08-12T04:15:02.603Z,20.85
2022-08-12T04:17:33.362Z,20.85
2022-08-12T04:20:02.595Z,20.82
2022-08-12T04:22:32.035Z,20.79
2022-08-12T04:25:01.632Z,20.78
2022-08-12T04:27:31.668Z,20.76
2022-08-12T04:30:31.590Z,20.77
2022-08-12T04:32:51.572Z,20.77
2022-08-12T04:35:22.118Z,20.81
2022-08-12T04:37:59.909Z,20.84
2022-08-12T04:40:31.874Z,20.86
2022-08-12T04:43:01.796Z,20.89
2022-08-12T04:45:31.997Z,20.93
2022-08-12T04:48:01.994Z,20.98
2022-08-12T04:50:36.034Z,21.03
2022-08-12T04:53:08.222Z,21.09
2022-08-12T04:55:38.494Z,21.16
2022-08-12T04:58:08.275Z,21.22
2022-08-12T05:00:37.867Z,21.24
2022-08-12T05:03:07.338Z,21.35
2022-08-12T05:05:37.776Z,21.46
2022-08-12T05:08:11.909Z,21.58
2022-08-12T05:10:40.918Z,21.70
2022-08-12T05:13:12.240Z,21.79
2022-08-12T05:16:05.219Z,21.90
2022-08-12T05:18:31.268Z,22.01
2022-08-12T05:21:00.130Z,22.06
2022-08-12T05:23:31.457Z,22.12
2022-08-12T05:26:00.563Z,22.20
2022-08-12T05:28:30.614Z,22.30
2022-08-12T05:31:01.631Z,22.42
2022-08-12T05:33:36.938Z,22.53
2022-08-12T05:36:07.744Z,22.65
2022-08-12T05:38:55.595Z,22.75
2022-08-12T05:41:26.609Z,22.83
2022-08-12T05:43:57.101Z,22.88
2022-08-12T05:46:27.663Z,22.95
2022-08-12T05:48:58.456Z,22.99
2022-08-12T05:51:39.788Z,23.05
2022-08-12T05:54:15.797Z,23.16
2022-08-12T05:56:45.114Z,23.24
2022-08-12T05:59:14.131Z,23.29
2022-08-12T06:02:10.462Z,23.34
2022-08-12T06:04:32.948Z,23.40
2022-08-12T06:07:02.087Z,23.45
2022-08-12T06:09:51.158Z,23.53
2022-08-12T06:12:20.921Z,23.64
2022-08-12T06:14:49.749Z,23.72
2022-08-12T06:17:18.845Z,23.85
2022-08-12T06:20:26.055Z,24.00
2022-08-12T06:22:39.068Z,24.16
2022-08-12T06:25:09.359Z,24.33
2022-08-12T06:28:06.496Z,24.49
2022-08-12T06:30:39.050Z,24.69
2022-08-12T06:33:22.088Z,24.85
2022-08-12T06:35:53.171Z,25.07
2022-08-12T06:38:28.732Z,25.28
2022-08-12T06:41:17.809Z,25.52
2022-08-12T06:44:04.728Z,25.77
2022-08-12T06:46:38.201Z,26.02
2022-08-12T06:49:11.853Z,26.27
2022-08-12T06:51:40.780Z,26.49
2022-08-12T06:54:10.898Z,26.71
2022-08-12T06:57:03.040Z,26.97
2022-08-12T06:59:28.546Z,27.28
2022-08-12T07:01:57.422Z,27.54
2022-08-12T07:04:36.251Z,27.87
2022-08-12T07:07:07.491Z,28.18
2022-08-12T07:10:04.158Z,28.44
2022-08-12T07:12:27.798Z,28.71
2022-08-12T07:14:58.337Z,28.95
2022-08-12T07:17:36.983Z,29.19
2022-08-12T07:20:29.817Z,29.42
2022-08-12T07:23:03.127Z,29.53
2022-08-12T07:25:41.127Z,29.60
2022-08-12T07:28:16.078Z,29.74
2022-08-12T07:30:48.638Z,29.96
2022-08-12T07:33:19.262Z,30.04
2022-08-12T07:35:49.133Z,30.24
2022-08-12T07:38:29.233Z,30.55
2022-08-12T07:41:05.056Z,30.91
2022-08-12T07:43:36.533Z,31.11
2022-08-12T07:46:12.446Z,31.24
2022-08-12T07:48:43.746Z,31.28
2022-08-12T07:51:25.256Z,31.46
2022-08-12T07:54:00.509Z,31.76
2022-08-12T07:56:32.171Z,32.16
2022-08-12T07:59:02.393Z,32.52
2022-08-12T08:01:32.779Z,32.84
2022-08-12T08:04:20.487Z,33.06
2022-08-12T08:06:50.561Z,33.45
2022-08-12T08:09:21.747Z,33.75
2022-08-12T08:12:09.145Z,33.80
2022-08-12T08:14:38.990Z,33.83
2022-08-12T08:17:10.945Z,33.85
2022-08-12T08:20:01.906Z,33.82
2022-08-12T08:22:41.455Z,33.59
2022-08-12T08:25:35.013Z,33.29
2022-08-12T08:28:04.192Z,33.33
2022-08-12T08:30:34.732Z,33.39
2022-08-12T08:33:17.274Z,33.51
2022-08-12T08:35:54.699Z,33.38
2022-08-12T08:38:33.085Z,33.42
2022-08-12T08:42:16.661Z,33.51
2022-08-12T08:44:12.096Z,33.74
2022-08-12T08:46:43.904Z,33.96
2022-08-12T08:49:15.237Z,34.15
2022-08-12T08:51:45.574Z,34.32
2022-08-12T08:54:14.445Z,34.55
2022-08-12T08:56:45.717Z,34.74
2022-08-12T08:59:16.159Z,34.87
2022-08-12T09:01:45.883Z,34.92
2022-08-12T09:05:09.046Z,34.95
2022-08-12T09:07:16.556Z,35.08
2022-08-12T09:10:02.741Z,35.41
2022-08-12T09:12:55.121Z,35.63
2022-08-12T09:18:15.204Z,35.77
2022-08-12T09:20:44.657Z,35.53
2022-08-12T09:26:09.763Z,35.58
2022-08-12T09:28:40.512Z,35.65
2022-08-12T09:32:03.760Z,35.61
2022-08-12T09:34:27.994Z,35.65
2022-08-12T09:36:58.041Z,35.67
2022-08-12T09:40:06.285Z,35.63
2022-08-12T09:42:43.318Z,35.83
2022-08-12T09:45:24.714Z,36.04
2022-08-12T09:48:20.306Z,36.28
2022-08-12T09:50:55.314Z,36.55
2022-08-12T09:53:29.426Z,36.78
2022-08-12T09:56:59.580Z,36.73
2022-08-12T09:59:09.664Z,36.80
2022-08-12T10:02:45.636Z,36.79
2022-08-12T10:04:30.373Z,36.57
2022-08-12T10:06:59.320Z,36.69
2022-08-12T10:09:58.395Z,36.93
2022-08-12T10:12:36.806Z,37.23
2022-08-12T10:15:07.334Z,37.43
2022-08-12T10:17:36.353Z,37.37
2022-08-12T10:20:25.054Z,37.17
2022-08-12T10:22:59.568Z,37.07
2022-08-12T10:26:18.587Z,37.15
2022-08-12T10:29:02.761Z,37.31
2022-08-12T10:32:01.634Z,37.44
2022-08-12T10:34:26.443Z,37.60
2022-08-12T10:36:58.512Z,37.57
2022-08-12T10:40:02.150Z,37.48
2022-08-12T10:42:51.240Z,37.57
2022-08-12T10:45:20.270Z,37.63
2022-08-12T10:48:07.640Z,37.55
2022-08-12T10:50:56.674Z,37.42
2022-08-12T10:53:45.742Z,37.24
2022-08-12T10:56:15.524Z,37.04
2022-08-12T10:58:47.087Z,37.01
2022-08-12T11:01:48.856Z,36.68
2022-08-12T11:04:35.794Z,36.25
2022-08-12T11:07:08.564Z,35.89
2022-08-12T11:09:59.602Z,35.52
2022-08-12T11:12:55.745Z,35.21
2022-08-12T11:15:33.314Z,34.97
2022-08-12T11:18:18.009Z,34.70
2022-08-12T11:20:49.200Z,34.33
2022-08-12T11:23:24.671Z,34.06
2022-08-12T11:26:06.925Z,33.99
2022-08-12T11:28:38.230Z,33.94
2022-08-12T11:31:12.272Z,33.90
2022-08-12T11:34:06.465Z,33.89
2022-08-12T11:36:32.973Z,33.86
2022-08-12T11:39:08.203Z,33.78
2022-08-12T11:41:43.101Z,33.66
2022-08-12T11:44:36.723Z,33.51
2022-08-12T11:47:01.360Z,33.31
2022-08-12T11:49:32.852Z,33.13
2022-08-12T11:52:03.599Z,32.99
2022-08-12T11:54:33.432Z,32.90
2022-08-12T11:58:03.881Z,32.81
2022-08-12T12:02:41.181Z,32.36
2022-08-12T12:05:10.504Z,32.36
2022-08-12T12:08:38.333Z,32.37
2022-08-12T12:10:32.407Z,32.33
2022-08-12T12:13:04.128Z,32.30
2022-08-12T12:15:41.410Z,32.37
2022-08-12T12:18:22.446Z,32.37
2022-08-12T12:21:01.678Z,32.30
2022-08-12T12:23:36.113Z,32.28
2022-08-12T12:26:08.570Z,32.22
2022-08-12T12:28:54.352Z,32.15
2022-08-12T12:32:09.257Z,32.07
2022-08-12T12:34:30.699Z,32.01
2022-08-12T12:37:00.882Z,31.99
2022-08-12T12:39:55.166Z,31.92
2022-08-12T12:42:52.105Z,31.87
2022-08-12T12:45:19.131Z,31.84
2022-08-12T12:48:00.001Z,31.86
2022-08-12T12:50:35.946Z,31.87
2022-08-12T12:54:05.758Z,31.89
2022-08-12T12:56:12.631Z,31.94
2022-08-12T12:58:43.609Z,31.93
2022-08-12T13:01:25.597Z,31.85
2022-08-12T13:04:02.167Z,31.73
2022-08-12T13:06:32.079Z,31.67
2022-08-12T13:09:03.622Z,31.60
2022-08-12T13:11:41.535Z,31.50
2022-08-12T13:14:29.571Z,31.40
2022-08-12T13:17:00.880Z,31.31
2022-08-12T13:19:38.704Z,31.29
2022-08-12T13:22:18.180Z,31.32
2022-08-12T13:24:54.954Z,31.28
2022-08-12T13:27:34.479Z,31.30
2022-08-12T13:30:11.092Z,31.32
2022-08-12T13:32:56.804Z,31.34
2022-08-12T13:36:02.934Z,31.35
2022-08-12T13:38:16.030Z,31.31
2022-08-12T13:40:57.892Z,31.36
2022-08-12T13:43:40.865Z,31.40
2022-08-12T13:46:13.415Z,31.44
2022-08-12T13:48:44.689Z,31.46
2022-08-12T13:51:14.431Z,31.42
2022-08-12T13:53:57.605Z,31.39
2022-08-12T13:56:35.115Z,31.35
2022-08-12T13:59:07.956Z,31.37
2022-08-12T14:01:40.087Z,31.36
2022-08-12T14:04:11.719Z,31.33
2022-08-12T14:06:41.238Z,31.31
2022-08-12T14:09:15.660Z,31.35
2022-08-12T14:11:58.687Z,31.37
2022-08-12T14:14:31.417Z,31.40
2022-08-12T14:17:09.834Z,31.44
2022-08-12T14:20:01.027Z,31.48
2022-08-12T14:22:31.671Z,31.47
2022-08-12T14:25:01.286Z,31.49
2022-08-12T14:28:04.376Z,31.48
2022-08-12T14:30:28.787Z,31.48
2022-08-12T14:33:03.046Z,31.48
2022-08-12T14:35:34.048Z,31.48
2022-08-12T14:38:15.732Z,31.46
2022-08-12T14:40:45.099Z,31.46
2022-08-12T14:43:14.064Z,31.44
2022-08-12T14:45:49.285Z,31.45
2022-08-12T14:48:24.520Z,31.42
2022-08-12T14:52:10.527Z,31.35
2022-08-12T14:59:58.399Z,31.19
2022-08-12T15:02:28.046Z,31.15
2022-08-12T15:04:59.692Z,31.11
2022-08-12T15:07:34.469Z,31.06
2022-08-12T15:10:32.029Z,31.05
2022-08-12T15:13:07.213Z,31.08
2022-08-12T15:15:38.031Z,31.11
2022-08-12T15:18:14.768Z,31.12
2022-08-12T15:20:43.576Z,31.15
2022-08-12T15:23:17.998Z,31.15
2022-08-12T15:26:00.096Z,31.12
2022-08-12T15:28:34.687Z,31.10
2022-08-12T15:31:21.364Z,31.10
2022-08-12T15:33:57.933Z,31.07
2022-08-12T15:36:54.438Z,31.03
2022-08-12T15:39:17.269Z,30.99
2022-08-12T15:41:49.421Z,30.95
2022-08-12T15:44:37.856Z,30.91
2022-08-12T15:47:08.856Z,30.88
2022-08-12T15:49:55.032Z,30.86
2022-08-12T15:52:28.589Z,30.87
2022-08-12T15:54:59.374Z,30.89
2022-08-12T15:57:35.407Z,30.91
2022-08-12T16:00:09.264Z,30.91
2022-08-12T16:02:52.333Z,30.90
2022-08-12T16:06:15.536Z,30.88
2022-08-12T16:08:19.743Z,30.90
2022-08-12T16:10:56.793Z,30.91
2022-08-12T16:13:34.469Z,30.85
2022-08-12T16:16:22.579Z,30.78
2022-08-12T16:18:56.644Z,30.70
2022-08-12T16:21:52.971Z,30.62
2022-08-12T16:24:14.568Z,30.55
2022-08-12T16:26:45.179Z,30.47
2022-08-12T16:29:24.947Z,30.38
2022-08-12T16:31:55.617Z,30.33
2022-08-12T16:34:26.116Z,30.30
2022-08-12T16:37:13.464Z,30.28
2022-08-12T16:40:00.883Z,30.14
2022-08-12T16:42:31.303Z,29.98
2022-08-12T16:45:03.076Z,29.85
2022-08-12T16:47:58.823Z,29.76
2022-08-12T16:50:22.236Z,29.64
2022-08-12T16:53:02.275Z,29.51
2022-08-12T16:55:41.918Z,29.39
2022-08-12T16:58:28.524Z,29.30
2022-08-12T17:01:01.981Z,29.23
2022-08-12T17:03:37.592Z,29.20
2022-08-12T17:06:09.951Z,29.11
2022-08-12T17:08:40.007Z,29.00
2022-08-12T17:11:18.324Z,28.88
2022-08-12T17:13:53.533Z,28.81
2022-08-12T17:16:24.008Z,28.76
2022-08-12T17:18:57.538Z,28.72
2022-08-12T17:21:40.703Z,28.70
2022-08-12T17:24:22.483Z,28.62
2022-08-12T17:27:00.763Z,28.56
2022-08-12T17:30:00.901Z,28.51
2022-08-12T17:32:25.676Z,28.47
2022-08-12T17:35:15.559Z,28.43
2022-08-12T17:37:47.955Z,28.34
2022-08-12T17:40:36.359Z,28.35
2022-08-12T17:43:57.873Z,28.33
2022-08-12T17:46:00.126Z,28.30
2022-08-12T17:48:34.942Z,28.27
2022-08-12T17:51:12.310Z,28.24
2022-08-12T17:54:05.712Z,28.22
2022-08-12T17:56:36.844Z,28.19
2022-08-12T17:59:08.988Z,28.13
2022-08-12T18:01:39.439Z,28.04
2022-08-12T18:04:22.763Z,27.97
2022-08-12T18:06:57.687Z,27.90
2022-08-12T18:09:32.226Z,27.84
2022-08-12T18:12:26.661Z,27.79
2022-08-12T18:14:59.866Z,27.76
2022-08-12T18:17:29.988Z,27.71
2022-08-12T18:20:06.589Z,27.65
2022-08-12T18:22:38.716Z,27.58
2022-08-12T18:26:15.514Z,27.53
2022-08-12T18:28:16.582Z,27.46
2022-08-12T18:30:52.285Z,27.36
2022-08-12T18:33:24.367Z,27.31
2022-08-12T18:35:55.333Z,27.27
2022-08-12T18:38:27.159Z,27.24
2022-08-12T18:41:21.042Z,27.20
2022-08-12T18:43:58.588Z,27.16
2022-08-12T18:46:45.240Z,27.11
2022-08-12T18:49:19.391Z,27.08
2022-08-12T18:51:55.024Z,27.03
2022-08-12T18:54:26.672Z,26.95
2022-08-12T18:57:00.409Z,26.90
2022-08-12T19:00:01.851Z,26.85
2022-08-12T19:02:21.769Z,26.82
2022-08-12T19:04:53.129Z,26.78
2022-08-12T19:07:24.498Z,26.74
2022-08-12T19:09:59.146Z,26.68
2022-08-12T19:12:55.336Z,26.63
2022-08-12T19:15:24.950Z,26.59
2022-08-12T19:17:56.809Z,26.55
2022-08-12T19:20:31.027Z,26.45
2022-08-12T19:23:07.486Z,26.38
2022-08-12T19:26:00.605Z,26.34
2022-08-12T19:28:35.698Z,26.31
2022-08-12T19:31:55.960Z,26.26
2022-08-12T19:34:56.317Z,26.23
2022-08-12T19:37:20.466Z,26.19
2022-08-12T19:40:07.820Z,26.14
2022-08-12T19:42:44.874Z,26.10
2022-08-12T19:45:17.395Z,26.05
2022-08-12T19:47:46.163Z,26.00
2022-08-12T19:50:19.686Z,25.96
2022-08-12T19:52:53.382Z,25.92
2022-08-12T19:55:26.164Z,25.89
2022-08-12T19:58:02.226Z,25.88
2022-08-12T20:00:42.985Z,25.86
2022-08-12T20:03:39.459Z,25.82
2022-08-12T20:06:06.375Z,25.77
2022-08-12T20:08:37.695Z,25.72
2022-08-12T20:12:14.575Z,25.69
2022-08-12T20:14:01.291Z,25.66
2022-08-12T20:16:52.685Z,25.60
2022-08-12T20:19:52.315Z,25.53
2022-08-12T20:22:24.584Z,25.49
2022-08-12T20:25:01.481Z,25.47
2022-08-12T20:28:04.884Z,25.43
2022-08-12T20:30:38.162Z,25.42
2022-08-12T20:33:17.774Z,25.39
2022-08-12T20:36:06.741Z,25.34
2022-08-12T20:38:40.176Z,25.29
2022-08-12T20:41:17.849Z,25.26
2022-08-12T20:43:49.851Z,25.26
2022-08-12T20:46:20.086Z,25.26
2022-08-12T20:48:55.111Z,25.23
2022-08-12T20:51:50.962Z,25.20
2022-08-12T20:54:18.984Z,25.21
2022-08-12T20:56:49.306Z,25.16
2022-08-12T20:59:20.049Z,25.16
2022-08-12T21:01:53.906Z,25.12
2022-08-12T21:04:43.823Z,25.13
2022-08-12T21:07:13.543Z,25.13
2022-08-12T21:09:46.939Z,25.10
2022-08-12T21:12:31.574Z,25.07
2022-08-12T21:15:22.811Z,25.03
2022-08-12T21:18:11.741Z,24.99
2022-08-12T21:20:54.505Z,24.96
2022-08-12T21:23:23.888Z,24.94
2022-08-12T21:25:55.548Z,24.91
2022-08-12T21:28:27.563Z,24.90
2022-08-12T21:32:37.728Z,24.88
2022-08-12T21:34:07.260Z,24.86
2022-08-12T21:36:40.413Z,24.84
2022-08-12T21:39:21.400Z,24.81
2022-08-12T21:41:53.299Z,24.77
2022-08-12T21:45:44.559Z,24.74
2022-08-12T21:47:21.179Z,24.72
2022-08-12T21:50:02.520Z,24.72
2022-08-12T21:52:34.926Z,24.71
2022-08-12T21:55:18.861Z,24.70
2022-08-12T21:57:54.328Z,24.69
2022-08-12T22:00:32.284Z,24.67
2022-08-12T22:04:01.646Z,24.66
2022-08-12T22:06:20.015Z,24.66
2022-08-12T22:08:57.800Z,24.66
2022-08-12T22:11:41.904Z,24.64
2022-08-12T22:14:21.426Z,24.65
2022-08-12T22:16:53.435Z,24.63
2022-08-12T22:19:22.858Z,24.61
2022-08-12T22:21:54.955Z,24.61
2022-08-12T22:24:26.257Z,24.59
2022-08-12T22:27:18.083Z,24.50
2022-08-12T22:30:07.640Z,24.50
2022-08-12T22:32:47.420Z,24.50
2022-08-12T22:35:47.258Z,24.51
2022-08-12T22:38:23.003Z,24.49
2022-08-12T22:40:53.843Z,24.49
2022-08-12T22:43:59.079Z,24.50
2022-08-12T22:46:52.560Z,24.48
2022-08-12T22:49:36.597Z,24.45
2022-08-12T22:52:13.550Z,24.43
2022-08-12T22:54:46.323Z,24.42
2022-08-12T22:57:49.376Z,24.43
2022-08-12T23:00:27.213Z,24.43
2022-08-12T23:03:02.997Z,24.41
2022-08-12T23:05:57.388Z,24.37
2022-08-12T23:08:30.034Z,24.34
2022-08-12T23:11:00.624Z,24.31
2022-08-12T23:13:55.515Z,24.30
2022-08-12T23:16:31.461Z,24.27
2022-08-12T23:19:10.602Z,24.25
2022-08-12T23:22:06.044Z,24.26
2022-08-12T23:24:53.817Z,24.22
2022-08-12T23:27:51.861Z,24.19
2022-08-12T23:30:31.924Z,24.16
2022-08-12T23:33:13.232Z,24.14
2022-08-12T23:35:58.846Z,24.12
2022-08-12T23:38:33.931Z,24.12
2022-08-12T23:41:04.939Z,24.10
2022-08-12T23:43:38.861Z,24.07
2022-08-12T23:46:19.107Z,24.02
2022-08-12T23:48:50.378Z,23.98
2022-08-12T23:51:24.308Z,23.95
2022-08-12T23:54:01.480Z,23.89
2022-08-12T23:56:32.314Z,23.83
2022-08-12T23:59:01.302Z,23.79
